Time;durP1;ratioP1;P1;durP2;ratioP2;P2;SDS_P1;SDS_P2;PMS_P1;PMS_P2;Temp;Humidity;BMP_temperature;BMP_pressure;BME280_temperature;BME280_humidity;BME280_pressure;Samples;Min_cycle;Max_cycle;Signal;HPM_P1;HPM_P2
2023/03/28 00:01:01;;;;;;;4.40;2.10;;;;;;;;;;5007946;28;20635;-56
2023/03/28 00:03:28;;;;;;;2.97;1.93;;;;;;;;;;5007712;28;20174;-56
2023/03/28 00:06:00;;;;;;;4.20;2.27;;;;;;;;;;5012887;28;20234;-56
2023/03/28 00:08:27;;;;;;;3.80;1.83;;;;;;;;;;5006603;28;20182;-56
2023/03/28 00:11:01;;;;;;;3.20;2.00;;;;;;;;;;5007998;28;20236;-56
2023/03/28 00:13:28;;;;;;;4.63;1.90;;;;;;;;;;5008270;28;20185;-56
2023/03/28 00:15:54;;;;;;;3.63;2.00;;;;;;;;;;5010370;28;20186;-56
2023/03/28 00:18:20;;;;;;;2.97;1.60;;;;;;;;;;5006278;28;20186;-56
2023/03/28 00:20:47;;;;;;;1.70;1.60;;;;;;;;;;5008170;28;20325;-56
2023/03/28 00:23:13;;;;;;;4.53;1.77;;;;;;;;;;5007185;28;20688;-56
2023/03/28 00:25:40;;;;;;;3.57;1.60;;;;;;;;;;5008226;28;20202;-56
2023/03/28 00:28:06;;;;;;;3.30;1.87;;;;;;;;;;5006843;28;20206;-56
2023/03/28 00:30:32;;;;;;;2.10;1.93;;;;;;;;;;5006646;28;20644;-56
2023/03/28 00:32:58;;;;;;;3.87;1.97;;;;;;;;;;5003894;28;20190;-56
2023/03/28 00:35:25;;;;;;;4.77;1.77;;;;;;;;;;5006767;28;20592;-56
2023/03/28 00:37:56;;;;;;;3.30;1.87;;;;;;;;;;5008759;28;20184;-56
2023/03/28 00:40:23;;;;;;;2.93;1.70;;;;;;;;;;5008823;28;20221;-56
2023/03/28 00:42:49;;;;;;;6.93;1.90;;;;;;;;;;5006851;28;20190;-56
2023/03/28 00:45:15;;;;;;;3.60;1.70;;;;;;;;;;5010613;28;20562;-56
2023/03/28 00:47:43;;;;;;;3.60;2.30;;;;;;;;;;5000929;28;20178;-56
2023/03/28 00:50:12;;;;;;;2.83;1.70;;;;;;;;;;5006424;28;20175;-56
2023/03/28 00:52:41;;;;;;;2.67;1.87;;;;;;;;;;5006718;28;20185;-56
2023/03/28 00:55:08;;;;;;;4.03;1.90;;;;;;;;;;5007990;28;20191;-56
2023/03/28 00:57:37;;;;;;;2.37;1.87;;;;;;;;;;5006077;28;20183;-56
2023/03/28 01:00:05;;;;;;;4.27;1.63;;;;;;;;;;5008428;28;20189;-56
2023/03/28 01:02:31;;;;;;;3.23;1.53;;;;;;;;;;5005890;28;20190;-56
2023/03/28 01:04:59;;;;;;;4.40;2.00;;;;;;;;;;5005315;28;20225;-56
2023/03/28 01:07:30;;;;;;;5.00;1.73;;;;;;;;;;5006913;28;20186;-56
2023/03/28 01:09:56;;;;;;;1.50;1.37;;;;;;;;;;5008346;28;20209;-56
2023/03/28 01:12:22;;;;;;;2.67;1.90;;;;;;;;;;5005861;28;20296;-56
2023/03/28 01:14:49;;;;;;;3.00;1.70;;;;;;;;;;4998460;28;20643;-56
2023/03/28 01:17:15;;;;;;;4.13;1.80;;;;;;;;;;5007014;28;20185;-57
2023/03/28 01:19:58;;;;;;;3.73;2.00;;;;;;;;;;5005916;28;20217;-56
2023/03/28 01:22:31;;;;;;;2.67;1.63;;;;;;;;;;5004938;28;20206;-56
2023/03/28 01:25:17;;;;;;;3.53;1.87;;;;;;;;;;5007519;28;20217;-56
2023/03/28 01:27:43;;;;;;;2.77;1.67;;;;;;;;;;5007076;28;20179;-56
2023/03/28 01:30:27;;;;;;;5.43;3.03;;;;;;;;;;5009472;28;20523;-56
2023/03/28 01:33:00;;;;;;;3.17;1.60;;;;;;;;;;5005205;28;20187;-56
2023/03/28 01:35:42;;;;;;;3.07;1.37;;;;;;;;;;5006251;28;20217;-57
2023/03/28 01:38:20;;;;;;;2.07;1.70;;;;;;;;;;5008272;28;20241;-56
2023/03/28 01:40:52;;;;;;;3.17;2.07;;;;;;;;;;5010730;28;20182;-56
2023/03/28 01:43:28;;;;;;;5.93;1.93;;;;;;;;;;5010273;28;20569;-57
2023/03/28 01:46:14;;;;;;;5.47;1.90;;;;;;;;;;5014255;28;20190;-56
2023/03/28 01:48:59;;;;;;;3.50;1.77;;;;;;;;;;4994119;28;20564;-56
2023/03/28 01:51:25;;;;;;;5.50;1.63;;;;;;;;;;5005505;28;20174;-56
2023/03/28 01:53:51;;;;;;;3.43;2.10;;;;;;;;;;5023123;28;20666;-56
2023/03/28 01:56:23;;;;;;;2.70;1.47;;;;;;;;;;5012521;28;20167;-56
2023/03/28 01:58:54;;;;;;;4.77;2.23;;;;;;;;;;5011429;28;20183;-56
2023/03/28 02:01:25;;;;;;;5.50;2.10;;;;;;;;;;5006990;28;20182;-56
2023/03/28 02:03:56;;;;;;;2.80;2.00;;;;;;;;;;5009694;28;20638;-56
2023/03/28 02:06:23;;;;;;;3.70;1.70;;;;;;;;;;5006781;28;20256;-56
2023/03/28 02:08:50;;;;;;;3.03;1.70;;;;;;;;;;5007787;28;20183;-56
2023/03/28 02:11:16;;;;;;;3.70;2.17;;;;;;;;;;5009598;28;20835;-57
2023/03/28 02:13:49;;;;;;;1.93;1.70;;;;;;;;;;5009786;28;20222;-56
2023/03/28 02:16:17;;;;;;;2.87;1.90;;;;;;;;;;5009932;28;20178;-56
2023/03/28 02:18:46;;;;;;;2.57;1.70;;;;;;;;;;5007889;28;20201;-56
2023/03/28 02:21:21;;;;;;;2.57;1.90;;;;;;;;;;5005695;28;20237;-56
2023/03/28 02:23:50;;;;;;;2.57;1.60;;;;;;;;;;5008473;28;20166;-56
2023/03/28 02:26:17;;;;;;;4.37;2.13;;;;;;;;;;5009137;28;20527;-56
2023/03/28 02:28:44;;;;;;;2.03;1.73;;;;;;;;;;5005543;28;20198;-56
2023/03/28 02:31:12;;;;;;;3.57;1.67;;;;;;;;;;5009761;28;20203;-56
2023/03/28 02:33:42;;;;;;;4.93;1.83;;;;;;;;;;5008622;28;20185;-56
2023/03/28 02:36:08;;;;;;;2.77;1.80;;;;;;;;;;5004968;28;20183;-56
2023/03/28 02:38:39;;;;;;;2.23;1.60;;;;;;;;;;5008733;28;20348;-56
2023/03/28 02:41:10;;;;;;;3.03;1.80;;;;;;;;;;5008707;28;20178;-56
2023/03/28 02:43:54;;;;;;;2.43;1.73;;;;;;;;;;5010987;28;20637;-56
2023/03/28 02:46:27;;;;;;;3.57;2.57;;;;;;;;;;5002196;28;20182;-56
2023/03/28 02:49:08;;;;;;;1.70;1.60;;;;;;;;;;5008486;28;20221;-56
2023/03/28 02:51:40;;;;;;;2.60;1.80;;;;;;;;;;5008298;28;20195;-56
2023/03/28 02:54:12;;;;;;;2.97;1.77;;;;;;;;;;5009713;28;20202;-56
2023/03/28 02:56:52;;;;;;;2.00;1.80;;;;;;;;;;5006909;28;20230;-57
2023/03/28 02:59:44;;;;;;;2.47;1.60;;;;;;;;;;5011057;28;20182;-56
2023/03/28 03:02:15;;;;;;;3.47;1.87;;;;;;;;;;5005414;28;20195;-57
2023/03/28 03:04:41;;;;;;;3.10;1.70;;;;;;;;;;5006505;28;20206;-56
2023/03/28 03:07:08;;;;;;;4.10;1.70;;;;;;;;;;5006990;28;20170;-56
2023/03/28 03:09:34;;;;;;;5.10;2.00;;;;;;;;;;5007593;28;20289;-56
2023/03/28 03:12:00;;;;;;;1.87;1.33;;;;;;;;;;5009198;28;20210;-56
2023/03/28 03:14:27;;;;;;;3.93;1.93;;;;;;;;;;5008556;28;20179;-56
2023/03/28 03:16:53;;;;;;;4.67;4.27;;;;;;;;;;5005489;28;20206;-56
2023/03/28 03:19:19;;;;;;;3.57;1.67;;;;;;;;;;5008232;28;20504;-56
2023/03/28 03:21:45;;;;;;;2.27;1.70;;;;;;;;;;5006813;28;20453;-56
2023/03/28 03:24:13;;;;;;;1.43;1.33;;;;;;;;;;5007369;28;20202;-57
2023/03/28 03:26:39;;;;;;;2.23;1.80;;;;;;;;;;5001466;28;20193;-55
2023/03/28 03:29:05;;;;;;;3.53;1.80;;;;;;;;;;5013107;28;20181;-56
2023/03/28 03:31:32;;;;;;;2.40;2.20;;;;;;;;;;5012575;28;20312;-56
2023/03/28 03:33:58;;;;;;;3.03;1.73;;;;;;;;;;5006863;28;20262;-55
2023/03/28 03:36:25;;;;;;;3.30;1.90;;;;;;;;;;5006086;28;20273;-57
2023/03/28 03:38:52;;;;;;;4.07;1.90;;;;;;;;;;5006061;28;20309;-56
2023/03/28 03:41:18;;;;;;;2.47;1.60;;;;;;;;;;5009028;28;20206;-57
2023/03/28 03:43:44;;;;;;;2.87;1.67;;;;;;;;;;5006822;28;20194;-57
2023/03/28 03:46:10;;;;;;;2.87;1.57;;;;;;;;;;5009148;28;20209;-57
2023/03/28 03:48:36;;;;;;;4.03;1.77;;;;;;;;;;5006069;28;20189;-56
2023/03/28 03:51:02;;;;;;;3.07;2.20;;;;;;;;;;5007700;28;20185;-57
2023/03/28 03:53:28;;;;;;;3.63;1.80;;;;;;;;;;5007367;28;20290;-56
2023/03/28 03:55:59;;;;;;;2.87;1.77;;;;;;;;;;5007826;28;20622;-56
2023/03/28 03:58:25;;;;;;;2.30;2.03;;;;;;;;;;5007826;28;20182;-57
2023/03/28 04:00:51;;;;;;;3.63;1.90;;;;;;;;;;5007032;28;20217;-57
2023/03/28 04:03:18;;;;;;;3.00;2.70;;;;;;;;;;5010762;28;20186;-56
2023/03/28 04:05:44;;;;;;;2.97;2.00;;;;;;;;;;5004588;28;20750;-57
2023/03/28 04:08:10;;;;;;;4.67;2.17;;;;;;;;;;5006968;28;20203;-57
2023/03/28 04:10:36;;;;;;;3.70;1.80;;;;;;;;;;5005805;28;20175;-56
2023/03/28 04:13:02;;;;;;;3.70;2.10;;;;;;;;;;5005616;28;20178;-57
2023/03/28 04:15:28;;;;;;;3.33;2.07;;;;;;;;;;5007009;28;20174;-57
2023/03/28 04:17:55;;;;;;;3.23;1.80;;;;;;;;;;5005921;28;20182;-57
2023/03/28 04:20:22;;;;;;;5.57;1.80;;;;;;;;;;5002200;28;20682;-57
2023/03/28 04:22:49;;;;;;;2.20;1.80;;;;;;;;;;5005738;28;20662;-57
2023/03/28 04:25:16;;;;;;;3.93;3.07;;;;;;;;;;5011959;28;20677;-57
2023/03/28 04:27:47;;;;;;;2.93;2.20;;;;;;;;;;5006245;28;20189;-57
2023/03/28 04:30:16;;;;;;;3.53;1.90;;;;;;;;;;5006087;28;20181;-57
2023/03/28 04:32:43;;;;;;;2.00;1.80;;;;;;;;;;5008324;28;20188;-57
2023/03/28 04:35:11;;;;;;;3.17;2.10;;;;;;;;;;5003832;28;20186;-57
2023/03/28 04:37:37;;;;;;;3.40;1.60;;;;;;;;;;5007374;28;20210;-57
2023/03/28 04:40:09;;;;;;;2.20;2.00;;;;;;;;;;5007646;28;20182;-57
2023/03/28 04:42:36;;;;;;;3.93;2.00;;;;;;;;;;5020067;28;20186;-57
2023/03/28 04:45:03;;;;;;;3.50;2.50;;;;;;;;;;5006160;28;20662;-57
2023/03/28 04:47:29;;;;;;;3.17;2.17;;;;;;;;;;5009921;28;20634;-57
2023/03/28 04:49:57;;;;;;;2.27;2.03;;;;;;;;;;5003644;28;20229;-57
2023/03/28 04:52:23;;;;;;;1.77;1.67;;;;;;;;;;5005740;28;20787;-57
2023/03/28 04:54:50;;;;;;;4.30;2.77;;;;;;;;;;5003263;28;20660;-57
2023/03/28 04:57:16;;;;;;;3.50;2.10;;;;;;;;;;5002262;28;20174;-57
2023/03/28 04:59:42;;;;;;;3.40;1.87;;;;;;;;;;5002921;28;20934;-57
2023/03/28 05:02:09;;;;;;;2.80;1.90;;;;;;;;;;5006122;28;20469;-57
2023/03/28 05:04:36;;;;;;;2.13;1.90;;;;;;;;;;5008542;28;20205;-57
2023/03/28 05:07:02;;;;;;;3.23;1.97;;;;;;;;;;5002815;28;20261;-57
2023/03/28 05:09:29;;;;;;;2.73;2.07;;;;;;;;;;5007188;28;20175;-57
2023/03/28 05:11:55;;;;;;;3.57;2.40;;;;;;;;;;5004729;28;20576;-56
2023/03/28 05:14:21;;;;;;;4.27;2.27;;;;;;;;;;5009734;28;20499;-57
2023/03/28 05:16:47;;;;;;;3.27;1.87;;;;;;;;;;5008866;28;20221;-56
2023/03/28 05:19:13;;;;;;;2.57;1.90;;;;;;;;;;5011505;28;20186;-56
2023/03/28 05:21:39;;;;;;;3.63;2.03;;;;;;;;;;5008235;28;20226;-57
2023/03/28 05:24:07;;;;;;;2.37;1.90;;;;;;;;;;5007230;28;20610;-56
2023/03/28 05:26:33;;;;;;;2.90;2.00;;;;;;;;;;5007361;28;20642;-56
2023/03/28 05:28:59;;;;;;;3.07;2.20;;;;;;;;;;5009684;28;20976;-57
2023/03/28 05:31:29;;;;;;;4.20;2.43;;;;;;;;;;5011238;28;20181;-56
2023/03/28 05:33:55;;;;;;;5.23;2.40;;;;;;;;;;5007176;28;20272;-57
2023/03/28 05:36:22;;;;;;;4.57;2.97;;;;;;;;;;5008209;28;20182;-57
2023/03/28 05:38:48;;;;;;;2.70;2.23;;;;;;;;;;5006682;28;20174;-57
2023/03/28 05:41:14;;;;;;;4.50;2.17;;;;;;;;;;5006821;28;20194;-57
2023/03/28 05:43:40;;;;;;;2.70;2.00;;;;;;;;;;5010343;28;20202;-56
2023/03/28 05:46:06;;;;;;;3.67;2.47;;;;;;;;;;5006609;28;20202;-56
2023/03/28 05:48:32;;;;;;;6.03;2.60;;;;;;;;;;5007392;28;20185;-56
2023/03/28 05:50:59;;;;;;;3.03;2.60;;;;;;;;;;5004482;28;20297;-56
2023/03/28 05:53:25;;;;;;;2.90;2.20;;;;;;;;;;5009870;28;20194;-56
2023/03/28 05:55:51;;;;;;;6.33;2.00;;;;;;;;;;5008720;28;20186;-56
2023/03/28 05:58:18;;;;;;;4.80;2.17;;;;;;;;;;5010586;28;20191;-56
2023/03/28 06:00:45;;;;;;;4.33;2.10;;;;;;;;;;5010441;28;20188;-57
2023/03/28 06:03:12;;;;;;;2.97;2.53;;;;;;;;;;5011556;28;20210;-57
2023/03/28 06:05:38;;;;;;;2.83;2.37;;;;;;;;;;5003835;28;20554;-56
2023/03/28 06:08:04;;;;;;;5.50;2.70;;;;;;;;;;5011556;28;20174;-56
2023/03/28 06:10:30;;;;;;;6.07;2.50;;;;;;;;;;5010898;28;20730;-56
2023/03/28 06:12:56;;;;;;;2.60;2.37;;;;;;;;;;5011745;28;20835;-57
2023/03/28 06:15:22;;;;;;;2.47;2.27;;;;;;;;;;5007609;28;20603;-53
2023/03/28 06:17:49;;;;;;;7.70;2.10;;;;;;;;;;5012095;28;20180;-53
2023/03/28 06:20:15;;;;;;;4.40;2.10;;;;;;;;;;5006899;28;20182;-53
2023/03/28 06:22:41;;;;;;;3.13;2.20;;;;;;;;;;5008242;28;20182;-53
2023/03/28 06:25:08;;;;;;;2.33;2.13;;;;;;;;;;5001901;28;20202;-53
2023/03/28 06:27:35;;;;;;;4.10;2.57;;;;;;;;;;4997650;28;20194;-53
2023/03/28 06:30:03;;;;;;;3.30;2.50;;;;;;;;;;4999499;28;20184;-53
2023/03/28 06:32:29;;;;;;;4.90;2.70;;;;;;;;;;5004034;28;20583;-54
2023/03/28 06:34:55;;;;;;;3.90;2.50;;;;;;;;;;5001553;28;20183;-53
2023/03/28 06:37:21;;;;;;;5.27;2.53;;;;;;;;;;5000051;28;20217;-54
2023/03/28 06:39:49;;;;;;;3.77;2.67;;;;;;;;;;4998556;28;20190;-54
2023/03/28 06:42:16;;;;;;;5.50;2.80;;;;;;;;;;4995271;28;20186;-54
2023/03/28 06:44:42;;;;;;;3.20;2.50;;;;;;;;;;5001043;28;20237;-54
2023/03/28 06:47:08;;;;;;;4.53;3.03;;;;;;;;;;4998928;28;20233;-54
2023/03/28 06:49:34;;;;;;;3.63;2.70;;;;;;;;;;4995298;28;20703;-54
2023/03/28 06:52:00;;;;;;;3.70;2.30;;;;;;;;;;5000734;28;20183;-54
2023/03/28 06:54:26;;;;;;;3.70;2.90;;;;;;;;;;4997517;28;20182;-54
2023/03/28 06:56:52;;;;;;;4.27;2.67;;;;;;;;;;4999681;28;20697;-54
2023/03/28 06:59:18;;;;;;;4.60;2.70;;;;;;;;;;4999733;28;20191;-54
2023/03/28 07:01:44;;;;;;;4.93;3.30;;;;;;;;;;5000429;28;20180;-55
2023/03/28 07:04:10;;;;;;;5.53;3.13;;;;;;;;;;4997419;28;20198;-55
2023/03/28 07:06:37;;;;;;;5.13;2.60;;;;;;;;;;4999746;28;20600;-55
2023/03/28 07:09:03;;;;;;;3.43;2.27;;;;;;;;;;4998438;28;21488;-55
2023/03/28 07:11:29;;;;;;;3.13;2.80;;;;;;;;;;5001171;28;20705;-55
2023/03/28 07:13:55;;;;;;;4.57;3.50;;;;;;;;;;5001307;28;20584;-55
2023/03/28 07:16:22;;;;;;;6.30;3.23;;;;;;;;;;4996825;28;20170;-55
2023/03/28 07:18:48;;;;;;;3.97;3.10;;;;;;;;;;4997801;28;20734;-56
2023/03/28 07:21:15;;;;;;;6.57;2.97;;;;;;;;;;4997834;28;20264;-55
2023/03/28 07:23:43;;;;;;;4.00;2.83;;;;;;;;;;4994542;28;20183;-56
2023/03/28 07:26:10;;;;;;;3.67;3.03;;;;;;;;;;4997261;28;20257;-55
2023/03/28 07:28:37;;;;;;;4.73;3.37;;;;;;;;;;4997910;28;20174;-56
2023/03/28 07:31:03;;;;;;;8.27;3.20;;;;;;;;;;5000328;28;20642;-55
2023/03/28 07:33:30;;;;;;;4.13;3.50;;;;;;;;;;4996664;28;20218;-55
2023/03/28 07:35:56;;;;;;;5.00;3.43;;;;;;;;;;4999123;28;20181;-56
2023/03/28 07:38:23;;;;;;;6.00;3.33;;;;;;;;;;4996165;28;20274;-56
2023/03/28 07:40:49;;;;;;;6.23;3.67;;;;;;;;;;4998788;28;20654;-56
2023/03/28 07:43:15;;;;;;;5.57;3.60;;;;;;;;;;4997644;28;20205;-56
2023/03/28 07:45:41;;;;;;;4.97;2.97;;;;;;;;;;4998968;28;20256;-56
2023/03/28 07:48:08;;;;;;;3.93;3.00;;;;;;;;;;4996621;28;20250;-56
2023/03/28 07:50:35;;;;;;;5.97;3.50;;;;;;;;;;5004151;28;20565;-56
2023/03/28 07:53:01;;;;;;;4.00;3.40;;;;;;;;;;5006782;28;20171;-56
2023/03/28 07:55:28;;;;;;;4.80;3.50;;;;;;;;;;5003151;28;20175;-56
2023/03/28 07:57:54;;;;;;;5.47;3.77;;;;;;;;;;5001372;28;20175;-56
2023/03/28 08:00:22;;;;;;;9.27;4.10;;;;;;;;;;5005052;28;20201;-56
2023/03/28 08:02:48;;;;;;;5.93;3.93;;;;;;;;;;5006177;28;20182;-57
2023/03/28 08:05:15;;;;;;;5.93;3.90;;;;;;;;;;5012829;28;20309;-57
2023/03/28 08:07:44;;;;;;;6.10;3.87;;;;;;;;;;5007415;28;20183;-57
2023/03/28 08:10:10;;;;;;;7.63;3.57;;;;;;;;;;5003428;28;20829;-57
2023/03/28 08:12:36;;;;;;;5.80;3.43;;;;;;;;;;5005747;28;20222;-57
2023/03/28 08:15:03;;;;;;;5.40;3.33;;;;;;;;;;5007230;28;20182;-57
2023/03/28 08:17:29;;;;;;;7.30;3.37;;;;;;;;;;5005852;28;20264;-57
2023/03/28 08:19:55;;;;;;;7.97;4.30;;;;;;;;;;5005986;28;20193;-57
2023/03/28 08:22:21;;;;;;;9.40;4.17;;;;;;;;;;5005760;28;20187;-57
2023/03/28 08:24:47;;;;;;;7.37;4.33;;;;;;;;;;5007243;28;20302;-57
2023/03/28 08:27:14;;;;;;;4.40;3.40;;;;;;;;;;5007540;28;20184;-57
2023/03/28 08:29:40;;;;;;;6.70;3.80;;;;;;;;;;5006447;28;20635;-57
2023/03/28 08:32:06;;;;;;;4.63;3.27;;;;;;;;;;5005835;28;20230;-57
2023/03/28 08:34:33;;;;;;;6.43;3.80;;;;;;;;;;5004693;28;20636;-56
2023/03/28 08:36:59;;;;;;;5.90;3.47;;;;;;;;;;5008171;28;20260;-57
2023/03/28 08:39:25;;;;;;;7.03;4.07;;;;;;;;;;5007496;28;20178;-57
2023/03/28 08:41:51;;;;;;;5.97;4.00;;;;;;;;;;5007238;28;20190;-57
2023/03/28 08:44:46;;;;;;;5.90;3.63;;;;;;;;;;5006797;28;20198;-57
2023/03/28 08:47:16;;;;;;;7.10;3.83;;;;;;;;;;5001152;28;20651;-57
2023/03/28 08:50:02;;;;;;;8.67;4.13;;;;;;;;;;5010411;28;20638;-57
2023/03/28 08:52:28;;;;;;;9.63;4.37;;;;;;;;;;5005897;28;20540;-57
2023/03/28 08:55:05;;;;;;;5.87;3.50;;;;;;;;;;5009680;28;20285;-57
2023/03/28 08:57:32;;;;;;;5.17;3.40;;;;;;;;;;5005101;28;20186;-57
2023/03/28 09:00:13;;;;;;;6.30;3.63;;;;;;;;;;5006667;28;20765;-57
2023/03/28 09:02:39;;;;;;;6.57;4.10;;;;;;;;;;5007586;28;20726;-57
2023/03/28 09:05:06;;;;;;;4.03;3.37;;;;;;;;;;5008700;28;20253;-57
2023/03/28 09:07:33;;;;;;;6.30;4.07;;;;;;;;;;5003007;28;20174;-57
2023/03/28 09:10:10;;;;;;;4.93;3.23;;;;;;;;;;5007086;28;20236;-57
2023/03/28 09:12:45;;;;;;;4.77;3.13;;;;;;;;;;5007457;28;20198;-57
2023/03/28 09:15:39;;;;;;;7.03;3.93;;;;;;;;;;5004582;28;21313;-57
2023/03/28 09:18:29;;;;;;;6.90;3.63;;;;;;;;;;5006958;28;20182;-56
2023/03/28 09:21:04;;;;;;;6.03;3.83;;;;;;;;;;5007023;28;20855;-57
2023/03/28 09:23:44;;;;;;;7.13;3.23;;;;;;;;;;5011675;28;20185;-57
2023/03/28 09:26:16;;;;;;;6.00;3.10;;;;;;;;;;5007420;28;20202;-57
2023/03/28 09:28:45;;;;;;;5.83;3.27;;;;;;;;;;5006054;28;20704;-57
2023/03/28 09:31:13;;;;;;;9.77;3.67;;;;;;;;;;4997559;28;20175;-57
2023/03/28 09:33:41;;;;;;;4.27;3.10;;;;;;;;;;5007045;28;20185;-57
2023/03/28 09:36:11;;;;;;;5.53;2.90;;;;;;;;;;5011871;28;20182;-57
2023/03/28 09:38:39;;;;;;;6.40;3.03;;;;;;;;;;5007075;28;20197;-57
2023/03/28 09:41:17;;;;;;;5.33;2.83;;;;;;;;;;5010009;28;20542;-57
2023/03/28 09:43:46;;;;;;;5.93;2.40;;;;;;;;;;5000984;28;20202;-57
2023/03/28 09:46:30;;;;;;;4.57;2.37;;;;;;;;;;5007454;28;20536;-57
2023/03/28 09:48:56;;;;;;;5.47;2.57;;;;;;;;;;5008800;28;20272;-58
2023/03/28 09:51:22;;;;;;;5.90;3.07;;;;;;;;;;5001547;28;20179;-58
2023/03/28 09:53:48;;;;;;;5.83;2.40;;;;;;;;;;5006717;28;20274;-58
2023/03/28 09:56:27;;;;;;;6.00;2.43;;;;;;;;;;5007368;28;20543;-58
2023/03/28 09:58:54;;;;;;;4.00;2.57;;;;;;;;;;5003300;28;20210;-58
2023/03/28 10:01:26;;;;;;;4.77;2.53;;;;;;;;;;5010028;28;20894;-58
2023/03/28 10:03:53;;;;;;;7.57;2.50;;;;;;;;;;5007980;28;20182;-58
2023/03/28 10:06:23;;;;;;;5.00;2.10;;;;;;;;;;5008677;28;20194;-58
2023/03/28 10:08:49;;;;;;;4.70;2.07;;;;;;;;;;5008843;28;20269;-58
2023/03/28 10:11:16;;;;;;;2.80;1.63;;;;;;;;;;5008348;28;20207;-59
2023/03/28 10:13:46;;;;;;;7.03;1.83;;;;;;;;;;5011501;28;21533;-57
2023/03/28 10:16:14;;;;;;;1.73;1.60;;;;;;;;;;5005228;28;20186;-58
2023/03/28 10:18:41;;;;;;;5.20;2.10;;;;;;;;;;5011432;28;20240;-58
2023/03/28 10:21:27;;;;;;;3.90;1.53;;;;;;;;;;5010048;28;20226;-58
2023/03/28 10:24:02;;;;;;;5.00;1.87;;;;;;;;;;5009895;28;20592;-58
2023/03/28 10:26:29;;;;;;;2.93;1.80;;;;;;;;;;5002006;28;20178;-58
2023/03/28 10:28:58;;;;;;;3.33;2.03;;;;;;;;;;5010156;28;20167;-58
2023/03/28 10:31:27;;;;;;;1.60;1.43;;;;;;;;;;5008722;28;20167;-58
2023/03/28 10:33:54;;;;;;;2.17;1.40;;;;;;;;;;5007671;28;20524;-58
2023/03/28 10:36:27;;;;;;;1.30;1.20;;;;;;;;;;5011979;28;20548;-59
2023/03/28 10:38:54;;;;;;;6.03;1.50;;;;;;;;;;5023315;28;20178;-58
2023/03/28 10:41:22;;;;;;;3.67;1.70;;;;;;;;;;5006840;28;20504;-58
2023/03/28 10:43:48;;;;;;;1.57;1.20;;;;;;;;;;5011599;28;20641;-58
2023/03/28 10:46:14;;;;;;;4.57;0.97;;;;;;;;;;5004916;28;20200;-58
2023/03/28 10:48:42;;;;;;;5.40;1.90;;;;;;;;;;5005957;28;20186;-58
2023/03/28 10:51:13;;;;;;;3.33;1.60;;;;;;;;;;5010095;28;20633;-59
2023/03/28 10:53:48;;;;;;;3.23;1.43;;;;;;;;;;5010124;28;20162;-58
2023/03/28 10:56:33;;;;;;;2.70;1.60;;;;;;;;;;4999948;28;20239;-58
2023/03/28 10:59:18;;;;;;;1.93;1.60;;;;;;;;;;5008116;28;20181;-58
2023/03/28 11:01:58;;;;;;;2.67;1.30;;;;;;;;;;5002792;28;20182;-58
2023/03/28 11:04:43;;;;;;;3.63;1.00;;;;;;;;;;5006003;28;20732;-58
2023/03/28 11:07:27;;;;;;;1.30;1.17;;;;;;;;;;5007867;28;20183;-58
2023/03/28 11:10:29;;;;;;;2.50;1.30;;;;;;;;;;5005595;28;20174;-59
2023/03/28 11:13:01;;;;;;;1.53;1.20;;;;;;;;;;5019464;28;20628;-58
2023/03/28 11:15:34;;;;;;;1.37;1.10;;;;;;;;;;5004086;28;20190;-58
2023/03/28 11:18:03;;;;;;;1.80;1.30;;;;;;;;;;5003800;28;20175;-58
2023/03/28 11:20:44;;;;;;;4.50;1.30;;;;;;;;;;5007536;28;20287;-58
2023/03/28 11:23:23;;;;;;;5.33;1.67;;;;;;;;;;5008817;28;20179;-58
2023/03/28 11:25:56;;;;;;;1.57;1.20;;;;;;;;;;5001269;28;20267;-58
2023/03/28 11:28:32;;;;;;;4.07;1.20;;;;;;;;;;5003223;28;20248;-58
2023/03/28 11:31:00;;;;;;;2.93;1.30;;;;;;;;;;5007104;28;20170;-58
2023/03/28 11:33:34;;;;;;;3.07;1.57;;;;;;;;;;5002385;28;20175;-58
2023/03/28 11:36:08;;;;;;;2.87;1.50;;;;;;;;;;5010009;28;20187;-58
2023/03/28 11:38:37;;;;;;;3.00;1.40;;;;;;;;;;4996952;28;20183;-58
2023/03/28 11:41:03;;;;;;;1.87;1.53;;;;;;;;;;5000752;28;21256;-53
2023/03/28 11:43:29;;;;;;;4.57;1.67;;;;;;;;;;5004012;28;20186;-53
2023/03/28 11:45:58;;;;;;;4.23;1.50;;;;;;;;;;5000416;28;20198;-53
2023/03/28 11:48:43;;;;;;;3.97;1.60;;;;;;;;;;5002715;28;20186;-53
2023/03/28 11:51:12;;;;;;;1.90;1.30;;;;;;;;;;5003445;28;20722;-53
2023/03/28 11:53:38;;;;;;;7.10;1.90;;;;;;;;;;5000981;28;20702;-53
2023/03/28 11:56:11;;;;;;;4.07;2.27;;;;;;;;;;5003048;28;20206;-53
2023/03/28 11:58:39;;;;;;;3.50;1.60;;;;;;;;;;5001499;28;20190;-53
2023/03/28 12:01:09;;;;;;;1.70;1.60;;;;;;;;;;5002036;28;20182;-53
2023/03/28 12:03:55;;;;;;;5.13;1.67;;;;;;;;;;5001896;28;20182;-53
2023/03/28 12:06:41;;;;;;;2.80;1.53;;;;;;;;;;5003971;28;20256;-53
2023/03/28 12:09:08;;;;;;;4.13;1.70;;;;;;;;;;5002814;28;20647;-52
2023/03/28 12:11:41;;;;;;;3.93;2.30;;;;;;;;;;5003251;28;20207;-53
2023/03/28 12:14:20;;;;;;;3.90;1.87;;;;;;;;;;5002711;28;20186;-53
2023/03/28 12:16:48;;;;;;;2.60;1.80;;;;;;;;;;5000646;28;20166;-53
2023/03/28 12:19:17;;;;;;;2.67;1.60;;;;;;;;;;5001033;28;20209;-52
2023/03/28 12:21:45;;;;;;;1.93;1.30;;;;;;;;;;5003534;28;20256;-52
2023/03/28 12:24:28;;;;;;;2.23;1.53;;;;;;;;;;5001859;28;20174;-53
2023/03/28 12:27:01;;;;;;;3.87;1.50;;;;;;;;;;5002193;28;20236;-53
2023/03/28 12:29:30;;;;;;;3.10;1.50;;;;;;;;;;5000841;28;20187;-53
2023/03/28 12:32:00;;;;;;;2.50;1.97;;;;;;;;;;5001033;28;20230;-53
2023/03/28 12:34:34;;;;;;;3.63;1.63;;;;;;;;;;5000033;28;20598;-53
2023/03/28 12:37:00;;;;;;;2.13;1.60;;;;;;;;;;5001168;28;20604;-53
2023/03/28 12:39:38;;;;;;;2.30;1.40;;;;;;;;;;5000843;28;20627;-53
2023/03/28 12:42:06;;;;;;;2.27;1.40;;;;;;;;;;4999528;28;20193;-53
2023/03/28 12:44:44;;;;;;;5.70;1.50;;;;;;;;;;5000012;28;20209;-53
2023/03/28 12:47:39;;;;;;;2.63;1.43;;;;;;;;;;4997889;28;20670;-53
2023/03/28 12:50:09;;;;;;;3.37;1.57;;;;;;;;;;4998889;28;20193;-53
2023/03/28 12:55:54;;;;;;;2.37;2.07;;;;;;;;;;4996750;28;20269;-53
2023/03/28 12:58:24;;;;;;;2.13;1.53;;;;;;;;;;5000551;28;20186;-53
2023/03/28 13:00:55;;;;;;;2.43;1.30;;;;;;;;;;4996257;28;20221;-53
2023/03/28 13:03:25;;;;;;;1.70;1.13;;;;;;;;;;4994833;28;20713;-53
2023/03/28 13:06:11;;;;;;;1.73;1.10;;;;;;;;;;4998372;28;20676;-53
2023/03/28 13:08:50;;;;;;;1.53;1.20;;;;;;;;;;4992949;28;20178;-52
2023/03/28 13:11:24;;;;;;;2.63;1.50;;;;;;;;;;4997534;28;20313;-53
2023/03/28 13:13:53;;;;;;;2.17;1.60;;;;;;;;;;5011288;28;21025;-52
2023/03/28 13:16:23;;;;;;;6.80;1.50;;;;;;;;;;4996876;28;20665;-53
2023/03/28 13:19:06;;;;;;;6.20;1.70;;;;;;;;;;4996655;28;20186;-53
2023/03/28 13:21:48;;;;;;;1.57;1.20;;;;;;;;;;4998751;28;20689;-53
2023/03/28 13:24:28;;;;;;;1.73;1.40;;;;;;;;;;4997584;28;20239;-53
2023/03/28 13:26:57;;;;;;;2.80;1.70;;;;;;;;;;4997377;28;20247;-53
2023/03/28 13:29:44;;;;;;;2.40;1.20;;;;;;;;;;4995759;28;20181;-52
2023/03/28 13:32:23;;;;;;;1.70;1.40;;;;;;;;;;4999988;28;20194;-52
2023/03/28 13:34:50;;;;;;;2.37;1.50;;;;;;;;;;5000543;28;20178;-52
2023/03/28 13:37:21;;;;;;;1.77;1.50;;;;;;;;;;4998290;28;20197;-53
2023/03/28 13:39:58;;;;;;;2.23;1.23;;;;;;;;;;5001228;28;20182;-53
2023/03/28 13:42:29;;;;;;;1.90;1.40;;;;;;;;;;4995217;28;20587;-53
2023/03/28 13:44:56;;;;;;;1.53;1.43;;;;;;;;;;4997696;28;20218;-53
2023/03/28 13:47:32;;;;;;;1.70;1.33;;;;;;;;;;4997934;28;20607;-52
2023/03/28 13:50:00;;;;;;;1.90;1.43;;;;;;;;;;4998805;28;20581;-54
2023/03/28 13:52:26;;;;;;;3.97;1.53;;;;;;;;;;5004392;28;20618;-54
2023/03/28 13:54:59;;;;;;;2.03;1.63;;;;;;;;;;5004688;28;20269;-54
2023/03/28 13:57:26;;;;;;;2.63;2.07;;;;;;;;;;5004328;28;20540;-53
2023/03/28 13:59:55;;;;;;;3.27;2.97;;;;;;;;;;5007648;28;20178;-54
2023/03/28 14:02:30;;;;;;;3.67;2.50;;;;;;;;;;5004865;28;20186;-54
2023/03/28 14:05:03;;;;;;;2.30;1.80;;;;;;;;;;5002734;28;20615;-54
2023/03/28 14:07:29;;;;;;;3.30;1.80;;;;;;;;;;4998920;28;20236;-54
2023/03/28 14:09:56;;;;;;;2.37;1.87;;;;;;;;;;4998961;28;20241;-54
2023/03/28 14:12:24;;;;;;;3.53;1.70;;;;;;;;;;4999304;28;20194;-54
2023/03/28 14:14:53;;;;;;;4.23;2.00;;;;;;;;;;5002343;28;20846;-54
2023/03/28 14:17:31;;;;;;;4.07;1.83;;;;;;;;;;4999569;28;20179;-54
2023/03/28 14:20:05;;;;;;;1.63;1.50;;;;;;;;;;4999156;28;20281;-54
2023/03/28 14:22:32;;;;;;;1.80;1.40;;;;;;;;;;5000331;28;20190;-54
2023/03/28 14:25:03;;;;;;;2.93;1.63;;;;;;;;;;5001117;28;20198;-54
2023/03/28 14:27:32;;;;;;;3.57;2.00;;;;;;;;;;5005095;28;20242;-54
2023/03/28 14:29:59;;;;;;;1.73;1.47;;;;;;;;;;4997466;28;20214;-53
2023/03/28 14:32:33;;;;;;;3.57;1.47;;;;;;;;;;4999491;28;20174;-54
2023/03/28 14:35:19;;;;;;;4.50;1.53;;;;;;;;;;4999470;28;20206;-54
2023/03/28 14:37:50;;;;;;;3.07;1.73;;;;;;;;;;4997366;28;20269;-54
2023/03/28 14:40:27;;;;;;;2.43;1.80;;;;;;;;;;4999693;28;20178;-53
2023/03/28 14:42:55;;;;;;;1.93;1.60;;;;;;;;;;4999452;28;20185;-53
2023/03/28 14:45:21;;;;;;;2.83;2.00;;;;;;;;;;4999040;28;20666;-53
2023/03/28 14:47:49;;;;;;;1.73;1.57;;;;;;;;;;4998013;28;20714;-54
2023/03/28 14:50:16;;;;;;;2.90;2.10;;;;;;;;;;4997731;28;20174;-54
2023/03/28 14:52:43;;;;;;;2.60;1.70;;;;;;;;;;4997682;28;20524;-53
2023/03/28 14:55:20;;;;;;;3.87;1.90;;;;;;;;;;5003403;28;20175;-54
2023/03/28 14:57:49;;;;;;;4.53;2.13;;;;;;;;;;5001624;28;20212;-55
2023/03/28 15:00:18;;;;;;;4.47;2.00;;;;;;;;;;4999544;28;20186;-55
2023/03/28 15:02:45;;;;;;;6.13;1.90;;;;;;;;;;5001075;28;20681;-55